Time;durP1;ratioP1;P1;durP2;ratioP2;P2;SDS_P1;SDS_P2;PMS_P1;PMS_P2;Temp;Humidity;BMP_temperature;BMP_pressure;BME280_temperature;BME280_humidity;BME280_pressure;Samples;Min_cycle;Max_cycle;Signal;HPM_P1;HPM_P2
2022/07/14 00:01:43;;;;;;;2.30;2.10;;;;;;;23.84;44.07;157499.94;4971935;28;20457;-77
2022/07/14 00:04:09;;;;;;;2.33;2.13;;;;;;;23.84;44.32;157499.94;4953494;28;20424;-77
2022/07/14 00:06:38;;;;;;;1.70;1.60;;;;;;;23.83;44.26;157497.28;4978332;28;20485;-77
2022/07/14 00:09:04;;;;;;;2.33;1.97;;;;;;;23.82;44.25;157494.72;4973367;28;20439;-77
2022/07/14 00:11:31;;;;;;;2.60;1.87;;;;;;;23.82;44.31;157494.72;4973388;28;20912;-77
2022/07/14 00:13:58;;;;;;;2.13;2.00;;;;;;;23.79;44.95;157486.88;4972285;28;20989;-77
2022/07/14 00:16:25;;;;;;;2.20;2.00;;;;;;;23.77;44.78;157481.66;4972170;28;20453;-77
2022/07/14 00:18:52;;;;;;;2.67;1.97;;;;;;;23.73;44.86;157471.16;4964094;28;20502;-77
2022/07/14 00:21:19;;;;;;;2.47;2.27;;;;;;;23.69;44.84;157460.72;4954673;28;20534;-77
2022/07/14 00:23:48;;;;;;;2.33;2.13;;;;;;;23.63;45.15;157445.03;4953723;28;20530;-77
2022/07/14 00:26:15;;;;;;;4.53;2.00;;;;;;;23.60;45.55;157437.16;4970624;28;20596;-77
2022/07/14 00:28:42;;;;;;;3.83;1.90;;;;;;;23.57;45.48;157429.31;4976072;28;20527;-77
2022/07/14 00:31:10;;;;;;;2.33;2.00;;;;;;;23.56;45.72;157426.75;4993780;28;20440;-77
2022/07/14 00:33:38;;;;;;;2.80;2.13;;;;;;;23.53;45.63;157420.22;4990621;28;20439;-77
2022/07/14 00:36:05;;;;;;;3.00;2.03;;;;;;;23.50;45.57;157411.03;4975511;28;20481;-77
2022/07/14 00:38:31;;;;;;;2.30;2.10;;;;;;;23.48;45.56;157405.81;4959613;28;20485;-77
2022/07/14 00:41:00;;;;;;;2.17;1.97;;;;;;;23.47;45.35;157403.19;4959217;28;20792;-77
2022/07/14 00:43:27;;;;;;;3.90;2.10;;;;;;;23.45;45.47;157397.97;4958120;28;20492;-77
2022/07/14 00:45:53;;;;;;;2.10;1.90;;;;;;;23.44;45.08;157395.34;4987875;28;20457;-77
2022/07/14 00:48:20;;;;;;;2.90;2.30;;;;;;;23.41;44.75;157387.50;4976094;28;20822;-77
2022/07/14 00:50:48;;;;;;;2.10;1.90;;;;;;;23.41;44.76;157388.81;4990925;28;20438;-77
2022/07/14 00:53:14;;;;;;;1.90;1.80;;;;;;;23.41;44.22;157387.50;4985015;28;20484;-77
2022/07/14 00:55:42;;;;;;;5.33;2.03;;;;;;;23.43;44.57;157394.03;4974643;28;20469;-77
2022/07/14 00:58:10;;;;;;;1.90;1.80;;;;;;;23.44;44.28;157396.66;4990737;28;20903;-77
2022/07/14 01:00:38;;;;;;;4.33;1.90;;;;;;;23.38;44.28;157380.97;4974968;28;20500;-77
2022/07/14 01:03:06;;;;;;;2.10;1.90;;;;;;;23.39;43.90;157382.28;4974111;28;20501;-77
2022/07/14 01:05:33;;;;;;;2.30;2.00;;;;;;;23.37;44.06;157378.38;4973820;28;20864;-77
2022/07/14 01:08:00;;;;;;;1.93;1.77;;;;;;;23.33;43.80;157366.53;4974117;28;20463;-77
2022/07/14 01:10:27;;;;;;;2.80;1.53;;;;;;;23.30;44.32;157358.72;4966477;28;20488;-77
2022/07/14 01:12:54;;;;;;;2.17;1.67;;;;;;;23.30;44.12;157358.72;4988025;28;20457;-77
2022/07/14 01:15:25;;;;;;;2.97;1.93;;;;;;;23.26;44.28;157348.25;4975216;28;20824;-77
2022/07/14 01:17:52;;;;;;;2.60;1.90;;;;;;;23.25;44.31;157346.94;4974121;28;20469;-77
2022/07/14 01:20:19;;;;;;;3.67;2.13;;;;;;;23.22;45.22;157339.06;4974301;28;20440;-77
2022/07/14 01:22:49;;;;;;;2.23;2.03;;;;;;;23.21;44.76;157336.50;4974337;28;20473;-77
2022/07/14 01:25:17;;;;;;;2.40;2.20;;;;;;;23.18;44.66;157327.34;4958225;28;20549;-77
2022/07/14 01:27:44;;;;;;;3.60;1.90;;;;;;;23.13;44.52;157315.59;4990488;28;20508;-77
2022/07/14 01:30:11;;;;;;;2.77;2.00;;;;;;;23.05;44.50;157294.69;4992569;28;20512;-77
2022/07/14 01:32:38;;;;;;;2.07;1.83;;;;;;;22.98;44.79;157277.66;4989533;28;20454;-77
2022/07/14 01:35:06;;;;;;;3.07;2.00;;;;;;;22.94;44.60;157267.25;4974745;28;20485;-77
2022/07/14 01:37:33;;;;;;;3.07;1.97;;;;;;;22.90;44.52;157256.75;4958541;28;20564;-77
2022/07/14 01:40:02;;;;;;;1.77;1.67;;;;;;;22.89;44.52;157254.16;4975056;28;20529;-77
2022/07/14 01:42:30;;;;;;;2.20;1.70;;;;;;;22.85;43.95;157242.38;4973133;28;20461;-77
2022/07/14 01:44:57;;;;;;;2.00;1.80;;;;;;;22.81;44.45;157233.25;4993745;28;20445;-77
2022/07/14 01:47:25;;;;;;;2.87;2.00;;;;;;;22.77;44.20;157222.78;4993181;28;20457;-77
2022/07/14 01:49:52;;;;;;;2.53;1.70;;;;;;;22.72;44.12;157208.41;4993645;28;20441;-77
2022/07/14 01:52:18;;;;;;;2.63;1.77;;;;;;;22.70;44.07;157203.19;4995970;28;20548;-77
2022/07/14 01:54:45;;;;;;;2.23;1.60;;;;;;;22.68;43.94;157197.97;4974636;28;20538;-77
2022/07/14 01:57:15;;;;;;;2.20;1.97;;;;;;;22.62;43.93;157183.56;4957862;28;20549;-77
2022/07/14 01:59:44;;;;;;;2.70;2.00;;;;;;;22.58;44.36;157173.13;4972574;28;20445;-77
2022/07/14 02:02:12;;;;;;;2.10;1.70;;;;;;;22.55;44.34;157165.28;4986400;28;20465;-77
2022/07/14 02:04:39;;;;;;;2.13;1.93;;;;;;;22.51;44.73;157153.50;4970932;28;20470;-77
2022/07/14 02:07:07;;;;;;;2.30;1.60;;;;;;;22.47;44.84;157144.38;4970173;28;20501;-77
2022/07/14 02:12:45;;;;;;;2.40;2.20;;;;;;;22.43;44.01;157133.91;4960870;28;20807;-77
2022/07/14 02:15:12;;;;;;;2.83;1.90;;;;;;;22.39;43.86;157124.81;4953792;28;21006;-77
2022/07/14 02:17:39;;;;;;;2.70;1.90;;;;;;;22.36;43.98;157115.63;4972117;28;20458;-77
2022/07/14 02:20:08;;;;;;;1.90;1.80;;;;;;;22.36;44.48;157115.63;4973684;28;20453;-77
2022/07/14 02:22:35;;;;;;;1.90;1.70;;;;;;;22.30;44.05;157101.25;4954428;28;20455;-77
2022/07/14 02:25:02;;;;;;;6.30;2.03;;;;;;;22.26;44.04;157089.53;4980857;28;20528;-77
2022/07/14 02:27:29;;;;;;;2.67;1.77;;;;;;;22.21;44.55;157077.75;4972430;28;20583;-77
2022/07/14 02:29:57;;;;;;;2.07;1.87;;;;;;;22.17;44.70;157067.31;4985129;28;20454;-77
2022/07/14 02:32:24;;;;;;;3.27;1.83;;;;;;;22.13;44.90;157056.88;4978817;28;20454;-77
2022/07/14 02:34:53;;;;;;;2.10;1.90;;;;;;;22.07;44.79;157041.22;4974247;28;20469;-77
2022/07/14 02:37:19;;;;;;;2.93;1.80;;;;;;;21.99;45.26;157019.00;4972959;28;20561;-77
2022/07/14 02:39:48;;;;;;;1.80;1.70;;;;;;;21.96;45.38;157011.16;4973854;28;20528;-76
2022/07/14 02:42:15;;;;;;;2.93;1.70;;;;;;;21.88;45.25;156990.25;4973325;28;20821;-77
2022/07/14 02:44:42;;;;;;;6.23;2.10;;;;;;;21.81;45.37;156973.25;4985040;28;20449;-77
2022/07/14 02:47:10;;;;;;;2.07;1.87;;;;;;;21.77;45.62;156964.09;4970414;28;20484;-77
2022/07/14 02:49:38;;;;;;;2.07;1.87;;;;;;;21.76;45.58;156960.22;4973947;28;20561;-77
2022/07/14 02:52:05;;;;;;;2.00;1.73;;;;;;;21.74;45.21;156956.25;4991225;28;20505;-78
2022/07/14 02:54:32;;;;;;;2.60;2.00;;;;;;;21.72;45.35;156951.06;4958046;28;21104;-77
2022/07/14 02:56:59;;;;;;;1.90;1.80;;;;;;;21.69;45.37;156943.22;4972515;28;20465;-77
2022/07/14 02:59:26;;;;;;;2.50;1.80;;;;;;;21.64;45.73;156930.16;4989757;28;20441;-77
2022/07/14 03:01:53;;;;;;;5.27;1.70;;;;;;;21.62;45.65;156924.97;4989492;28;20469;-77
2022/07/14 03:04:24;;;;;;;3.03;1.97;;;;;;;21.61;45.83;156922.31;4968395;28;20485;-77
2022/07/14 03:06:54;;;;;;;2.00;1.80;;;;;;;21.61;45.67;156921.00;4970541;28;20508;-77
2022/07/14 03:09:23;;;;;;;2.50;2.30;;;;;;;21.58;45.90;156913.16;4973951;28;20474;-77
2022/07/14 03:11:51;;;;;;;2.47;2.10;;;;;;;21.57;45.96;156911.91;4974035;28;20442;-77
2022/07/14 03:14:18;;;;;;;2.00;1.83;;;;;;;21.55;46.19;156906.66;4957910;28;20430;-77
2022/07/14 03:16:44;;;;;;;3.33;1.80;;;;;;;21.49;46.28;156891.03;4972347;28;20481;-77
2022/07/14 03:19:11;;;;;;;2.83;2.30;;;;;;;21.44;46.69;156877.97;4973381;28;20468;-77
2022/07/14 03:21:39;;;;;;;2.20;2.00;;;;;;;21.40;46.87;156867.50;4963429;28;20577;-77
2022/07/14 03:24:09;;;;;;;2.30;2.10;;;;;;;21.39;47.34;156863.59;4967910;28;20472;-76
2022/07/14 03:26:38;;;;;;;2.33;2.13;;;;;;;21.30;47.68;156840.09;4967753;28;20513;-77
2022/07/14 03:29:07;;;;;;;2.30;2.10;;;;;;;21.21;47.84;156819.22;4957117;28;20496;-77
2022/07/14 03:31:34;;;;;;;3.00;2.33;;;;;;;21.16;48.78;156806.16;4971684;28;20518;-76
2022/07/14 03:34:02;;;;;;;2.63;2.43;;;;;;;21.19;49.54;156812.69;4968792;28;20935;-77
2022/07/14 03:36:30;;;;;;;2.80;2.00;;;;;;;21.12;50.15;156795.75;4958859;28;20491;-77
2022/07/14 03:38:59;;;;;;;4.03;2.20;;;;;;;21.08;50.42;156783.97;4960969;28;20490;-77
2022/07/14 03:41:26;;;;;;;2.30;2.10;;;;;;;21.03;51.45;156770.88;4977072;28;20840;-76
2022/07/14 03:43:53;;;;;;;3.13;2.43;;;;;;;20.97;51.94;156756.50;4970284;28;20484;-77
2022/07/14 03:46:20;;;;;;;2.60;2.40;;;;;;;20.97;51.88;156755.25;4957925;28;20804;-77
2022/07/14 03:49:02;;;;;;;3.00;2.70;;;;;;;20.98;52.38;156757.81;4974475;28;20438;-76
2022/07/14 03:51:28;;;;;;;3.27;2.97;;;;;;;20.99;53.07;156760.44;4974008;28;20939;-77
2022/07/14 03:53:56;;;;;;;3.13;2.83;;;;;;;20.99;53.90;156760.44;4989052;28;20453;-77
2022/07/14 03:56:24;;;;;;;3.00;2.70;;;;;;;20.96;53.69;156752.63;4943705;28;20820;-77
2022/07/14 03:58:51;;;;;;;2.73;2.50;;;;;;;20.98;53.54;156757.81;4973845;28;20815;-77
2022/07/14 04:01:21;;;;;;;2.83;2.50;;;;;;;20.98;53.21;156759.13;4956705;28;20485;-77
2022/07/14 04:03:51;;;;;;;3.00;2.50;;;;;;;20.97;52.73;156755.25;4960237;28;20466;-77
2022/07/14 04:06:24;;;;;;;3.50;2.50;;;;;;;20.94;52.96;156747.41;4976327;28;20477;-79
2022/07/14 04:08:52;;;;;;;2.67;2.47;;;;;;;20.95;52.90;156750.00;4994990;28;20480;-79
2022/07/14 04:11:18;;;;;;;2.80;2.60;;;;;;;20.93;53.16;156744.78;4975973;28;20544;-79
2022/07/14 04:13:48;;;;;;;2.60;2.40;;;;;;;20.94;53.19;156747.41;4989313;28;20458;-80
2022/07/14 04:16:15;;;;;;;2.90;2.57;;;;;;;20.93;53.26;156744.78;4959350;28;20481;-79
2022/07/14 04:18:46;;;;;;;2.80;2.50;;;;;;;20.93;53.37;156746.09;4975512;28;20445;-79
2022/07/14 04:21:14;;;;;;;3.40;2.70;;;;;;;20.93;53.52;156744.78;4975964;28;20485;-80
2022/07/14 04:23:40;;;;;;;2.60;2.30;;;;;;;20.93;53.71;156744.78;4974344;28;20951;-79
2022/07/14 04:26:08;;;;;;;2.80;2.60;;;;;;;20.97;52.93;156755.25;4993141;28;20457;-79
2022/07/14 04:28:35;;;;;;;3.10;2.70;;;;;;;21.01;52.66;156765.66;4952729;28;20450;-79
2022/07/14 04:31:03;;;;;;;2.70;2.50;;;;;;;21.01;53.30;156765.66;4977515;28;20466;-79
2022/07/14 04:33:30;;;;;;;2.73;2.50;;;;;;;21.01;53.16;156765.66;4976125;28;20446;-79
2022/07/14 04:35:57;;;;;;;3.20;2.80;;;;;;;21.02;53.19;156769.56;4975455;28;20626;-79
2022/07/14 04:38:25;;;;;;;2.97;2.77;;;;;;;21.02;53.29;156769.56;4975440;28;20456;-79
2022/07/14 04:40:54;;;;;;;2.80;2.60;;;;;;;21.00;52.69;156763.03;4975106;28;20966;-79
2022/07/14 04:43:22;;;;;;;2.43;2.23;;;;;;;20.98;52.65;156757.81;4958974;28;20489;-79
2022/07/14 04:45:52;;;;;;;3.57;2.83;;;;;;;21.00;52.56;156764.34;4959386;28;20956;-78
2022/07/14 04:48:21;;;;;;;2.53;2.20;;;;;;;21.08;52.77;156783.97;4975259;28;20442;-79
2022/07/14 04:53:31;;;;;;;3.40;2.30;;;;;;;21.95;51.76;157009.84;4958629;28;20540;-81
2022/07/14 04:56:16;;;;;;;2.50;2.30;;;;;;;22.54;50.15;157162.66;4974799;28;20489;-81
2022/07/14 04:59:10;;;;;;;3.57;2.20;;;;;;;23.11;48.90;157309.06;4974569;28;20525;-81
2022/07/14 05:01:37;;;;;;;2.73;2.53;;;;;;;23.58;47.76;157431.97;4971812;28;20465;-81
2022/07/14 05:04:05;;;;;;;2.80;2.43;;;;;;;23.96;46.37;157531.28;4976826;28;20461;-81
2022/07/14 05:06:33;;;;;;;3.17;2.20;;;;;;;24.29;45.68;157616.34;4994011;28;20441;-81
2022/07/14 05:09:00;;;;;;;2.40;2.10;;;;;;;24.55;45.25;157683.03;4976168;28;20430;-81
2022/07/14 05:11:29;;;;;;;3.30;3.00;;;;;;;24.74;44.63;157732.75;4975685;28;20461;-82
2022/07/14 05:13:56;;;;;;;2.97;2.30;;;;;;;24.94;43.97;157783.84;4955208;28;20457;-81
2022/07/14 05:16:23;;;;;;;2.53;2.33;;;;;;;25.03;43.93;157808.69;4970359;28;20547;-81
2022/07/14 05:18:50;;;;;;;3.00;2.03;;;;;;;25.17;43.48;157845.34;4991559;28;20497;-81
2022/07/14 05:21:18;;;;;;;3.73;2.33;;;;;;;25.29;43.68;157876.75;4982986;28;20460;-81
2022/07/14 05:23:45;;;;;;;8.50;2.70;;;;;;;25.40;43.50;157905.53;4990324;28;20811;-81
2022/07/14 05:26:13;;;;;;;2.57;2.37;;;;;;;25.49;43.78;157926.53;5008527;28;20444;-81
2022/07/14 05:28:40;;;;;;;3.20;2.47;;;;;;;25.78;43.25;158002.47;5003339;28;20445;-81
2022/07/14 05:31:08;;;;;;;2.30;2.10;;;;;;;26.09;42.30;158083.63;4974864;28;20456;-81
2022/07/14 05:33:41;;;;;;;2.43;2.23;;;;;;;26.41;42.27;158167.47;4983239;28;20445;-81
2022/07/14 05:36:08;;;;;;;3.53;2.77;;;;;;;26.54;42.10;158201.53;4976707;28;21190;-81
2022/07/14 05:38:37;;;;;;;5.47;2.90;;;;;;;26.75;42.12;158253.91;4973481;28;20450;-81
2022/07/14 05:41:04;;;;;;;4.37;2.37;;;;;;;27.05;41.69;158333.91;4978294;28;20452;-81
2022/07/14 05:43:31;;;;;;;2.80;2.60;;;;;;;27.18;41.55;158366.63;4985735;28;20458;-82
2022/07/14 05:46:03;;;;;;;2.70;2.30;;;;;;;27.09;40.71;158343.03;4958288;28;20540;-81
2022/07/14 05:48:31;;;;;;;2.83;2.40;;;;;;;27.10;40.68;158345.69;4974215;28;20489;-81
2022/07/14 05:51:04;;;;;;;3.67;2.33;;;;;;;27.43;40.50;158432.19;4955775;28;21268;-81
2022/07/14 05:53:31;;;;;;;3.17;2.37;;;;;;;27.33;40.11;158404.63;4973677;28;20520;-81
2022/07/14 05:55:59;;;;;;;2.90;2.33;;;;;;;27.63;40.70;158484.63;4973145;28;20485;-81
2022/07/14 05:58:26;;;;;;;2.37;2.17;;;;;;;27.78;40.06;158522.63;4956707;28;20548;-82
2022/07/14 06:00:53;;;;;;;2.50;2.30;;;;;;;28.09;40.35;158603.94;4975816;28;20460;-81
2022/07/14 06:03:20;;;;;;;2.37;2.17;;;;;;;28.18;39.71;158626.22;4975782;28;20449;-82
2022/07/14 06:05:48;;;;;;;4.60;2.67;;;;;;;28.19;39.47;158628.88;4959203;28;20496;-82
2022/07/14 06:08:15;;;;;;;3.00;2.20;;;;;;;28.49;38.85;158706.25;4973690;28;20465;-82
2022/07/14 06:10:43;;;;;;;5.27;2.77;;;;;;;28.74;38.56;158773.16;4962886;28;20565;-82
2022/07/14 06:13:12;;;;;;;3.10;2.90;;;;;;;28.92;38.52;158820.38;4967624;28;20465;-82
2022/07/14 06:15:38;;;;;;;3.70;3.40;;;;;;;28.82;38.83;158792.84;4974571;28;20937;-82
2022/07/14 06:18:05;;;;;;;3.53;3.23;;;;;;;28.75;39.49;158775.75;4991498;28;20488;-82
2022/07/14 06:20:33;;;;;;;6.23;2.97;;;;;;;28.72;39.68;158767.94;4975212;28;20485;-82
2022/07/14 06:23:00;;;;;;;4.20;2.50;;;;;;;28.80;39.77;158787.59;4975064;28;20481;-83
2022/07/14 06:25:27;;;;;;;4.20;2.90;;;;;;;28.90;39.53;158813.81;4973562;28;21022;-83
2022/07/14 06:27:54;;;;;;;5.47;2.70;;;;;;;28.82;39.50;158792.84;4974897;28;20481;-83
2022/07/14 06:30:22;;;;;;;3.30;3.00;;;;;;;28.81;39.85;158790.19;4958521;28;20944;-82
2022/07/14 06:32:49;;;;;;;4.13;2.87;;;;;;;28.61;40.35;158739.03;4960163;28;20454;-83
2022/07/14 06:35:17;;;;;;;4.90;2.90;;;;;;;28.82;40.13;158794.16;4987182;28;20446;-83
2022/07/14 06:37:44;;;;;;;2.90;2.53;;;;;;;28.88;40.81;158808.59;4991580;28;20580;-83
2022/07/14 06:40:12;;;;;;;5.23;3.30;;;;;;;29.08;40.65;158859.72;4991047;28;20445;-83
2022/07/14 06:42:44;;;;;;;4.60;2.90;;;;;;;29.32;40.21;158922.75;4974886;28;20468;-83
2022/07/14 06:45:25;;;;;;;5.13;2.77;;;;;;;29.47;40.16;158962.09;4974793;28;20486;-83
2022/07/14 06:47:55;;;;;;;4.37;3.13;;;;;;;29.44;40.46;158954.25;4975692;28;20512;-83
2022/07/14 06:50:22;;;;;;;3.60;2.80;;;;;;;29.57;40.52;158989.66;4992044;28;20508;-83
2022/07/14 06:52:49;;;;;;;10.30;2.77;;;;;;;29.59;40.31;158993.59;4991817;28;20807;-83
2022/07/14 06:55:16;;;;;;;4.77;3.00;;;;;;;29.75;39.90;159035.59;4974824;28;20481;-83
2022/07/14 06:57:42;;;;;;;5.33;3.23;;;;;;;29.62;40.50;159001.50;4991914;28;20473;-83
2022/07/14 07:00:10;;;;;;;6.80;3.43;;;;;;;29.56;40.62;158987.03;4973309;28;20458;-83
2022/07/14 07:02:40;;;;;;;4.37;2.90;;;;;;;29.95;40.11;159086.81;4992760;28;20544;-84
2022/07/14 07:07:52;;;;;;;12.90;3.53;;;;;;;30.58;39.63;159252.25;4979317;28;20430;-83
2022/07/14 07:10:19;;;;;;;7.33;3.40;;;;;;;30.88;38.05;159329.75;4977985;28;21003;-83
2022/07/14 07:12:57;;;;;;;8.73;3.40;;;;;;;30.88;37.62;159329.75;4978898;28;20480;-83
2022/07/14 07:15:24;;;;;;;9.10;3.70;;;;;;;30.82;37.81;159313.97;4978319;28;20869;-83
2022/07/14 07:17:52;;;;;;;8.83;3.20;;;;;;;30.94;38.14;159344.25;4978376;28;20481;-83
2022/07/14 07:20:20;;;;;;;6.10;3.13;;;;;;;31.03;38.18;159369.19;4977751;28;20536;-83
2022/07/14 07:22:46;;;;;;;7.33;3.07;;;;;;;31.27;37.73;159432.22;4979281;28;20539;-83
2022/07/14 07:25:13;;;;;;;5.57;3.50;;;;;;;31.45;37.93;159476.91;4962091;28;20442;-83
2022/07/14 07:27:40;;;;;;;4.40;2.97;;;;;;;31.52;37.08;159496.66;4995084;28;20478;-84
2022/07/14 07:30:09;;;;;;;9.27;2.73;;;;;;;31.74;37.17;159553.16;4978694;28;20441;-83
2022/07/14 07:32:36;;;;;;;3.53;3.00;;;;;;;32.17;36.79;159666.19;4995190;28;20446;-83
2022/07/14 07:35:04;;;;;;;5.40;2.80;;;;;;;32.21;35.76;159676.72;4978559;28;20792;-83
2022/07/14 07:37:31;;;;;;;5.93;3.20;;;;;;;32.01;36.27;159624.13;4978206;28;20474;-83
2022/07/14 07:39:58;;;;;;;7.00;2.73;;;;;;;31.76;35.65;159559.72;4977547;28;20455;-84
2022/07/14 07:42:26;;;;;;;4.53;3.30;;;;;;;31.45;36.46;159476.91;4977845;28;20467;-84
2022/07/14 07:44:55;;;;;;;4.43;2.90;;;;;;;31.32;37.33;159445.34;4962483;28;20438;-84
2022/07/14 07:47:22;;;;;;;7.53;2.90;;;;;;;31.39;37.76;159461.13;4977465;28;20453;-83
2022/07/14 07:49:48;;;;;;;3.90;2.90;;;;;;;31.57;37.20;159508.47;4977678;28;20985;-84
2022/07/14 07:52:16;;;;;;;7.10;3.30;;;;;;;31.44;37.06;159474.28;4994991;28;21002;-84
2022/07/14 07:54:44;;;;;;;3.37;2.90;;;;;;;31.49;37.33;159487.44;4982757;28;20452;-84
2022/07/14 07:57:11;;;;;;;4.53;2.80;;;;;;;31.94;36.75;159605.69;4961989;28;20465;-84
2022/07/14 07:59:38;;;;;;;5.83;3.03;;;;;;;32.38;36.09;159721.38;4995704;28;21008;-84
2022/07/14 08:02:05;;;;;;;5.97;2.80;;;;;;;32.47;35.04;159745.06;4966826;28;20973;-85
2022/07/14 08:04:33;;;;;;;3.37;2.80;;;;;;;32.84;34.91;159839.75;4975036;28;20482;-84
2022/07/14 08:06:59;;;;;;;2.87;2.67;;;;;;;33.20;34.03;159934.50;4988327;28;20445;-84
2022/07/14 08:09:28;;;;;;;3.63;3.03;;;;;;;33.29;33.31;159958.16;4977611;28;20449;-84
2022/07/14 08:11:54;;;;;;;6.90;2.87;;;;;;;33.60;32.87;160039.72;4976930;28;20516;-85
2022/07/14 08:17:05;;;;;;;3.40;2.43;;;;;;;33.97;32.69;160134.47;4982395;28;20472;-85
2022/07/14 08:19:32;;;;;;;4.73;2.77;;;;;;;34.12;33.38;160175.28;4977798;28;20444;-84
2022/07/14 08:21:59;;;;;;;6.10;2.83;;;;;;;34.25;32.88;160209.50;4995144;28;20924;-84
2022/07/14 08:24:28;;;;;;;4.40;3.03;;;;;;;34.41;33.32;160250.28;4994760;28;20956;-84
2022/07/14 08:26:55;;;;;;;5.73;2.53;;;;;;;34.47;32.40;160266.09;4976658;28;20561;-84
2022/07/14 08:29:22;;;;;;;4.70;3.00;;;;;;;34.47;31.92;160264.75;4977137;28;20515;-85
2022/07/14 08:31:49;;;;;;;5.37;2.90;;;;;;;34.40;32.04;160247.63;4994922;28;20445;-85
2022/07/14 08:34:16;;;;;;;4.63;2.90;;;;;;;34.19;32.62;160192.38;4994602;28;20479;-85
2022/07/14 08:36:43;;;;;;;4.87;2.87;;;;;;;34.25;30.74;160208.19;4991794;28;20477;-85
2022/07/14 08:39:09;;;;;;;6.43;2.60;;;;;;;34.24;30.28;160205.53;4977363;28;20898;-85
2022/07/14 08:41:38;;;;;;;5.57;3.27;;;;;;;34.13;31.30;160177.91;4977204;28;20491;-85
2022/07/14 08:44:05;;;;;;;3.17;2.87;;;;;;;34.18;31.84;160189.78;4994786;28;20430;-85
2022/07/14 08:46:32;;;;;;;3.10;2.73;;;;;;;34.14;31.59;160179.22;4993812;28;20488;-85
2022/07/14 08:49:00;;;;;;;3.27;3.00;;;;;;;33.94;30.84;160127.88;4994725;28;20429;-84
2022/07/14 08:51:27;;;;;;;3.40;2.63;;;;;;;33.89;31.67;160114.69;4995229;28;20512;-85
2022/07/14 08:53:54;;;;;;;3.70;3.00;;;;;;;33.99;31.35;160141.03;4977445;28;20457;-85
2022/07/14 08:56:45;;;;;;;2.93;2.70;;;;;;;34.15;31.78;160181.88;4986586;28;20516;-85
2022/07/14 08:59:30;;;;;;;3.87;2.80;;;;;;;34.38;31.07;160242.38;4979744;28;20489;-84
2022/07/14 09:02:13;;;;;;;5.50;2.93;;;;;;;34.51;30.63;160275.28;4976410;28;20563;-85
2022/07/14 09:04:44;;;;;;;2.67;2.47;;;;;;;34.77;30.72;160345.06;4992916;28;20442;-85
2022/07/14 09:07:12;;;;;;;5.67;2.67;;;;;;;35.14;29.14;160439.88;4988952;28;20511;-85
2022/07/14 09:09:38;;;;;;;3.60;2.47;;;;;;;35.04;29.23;160413.50;4994528;28;20463;-85
2022/07/14 09:12:08;;;;;;;3.23;2.57;;;;;;;35.08;28.31;160424.13;4994520;28;20452;-85
2022/07/14 09:17:26;;;;;;;4.13;2.50;;;;;;;35.18;28.89;160450.44;4977570;28;20469;-85
2022/07/14 09:20:06;;;;;;;2.50;2.30;;;;;;;35.13;26.64;160437.28;4992009;28;20583;-80
2022/07/14 09:22:33;;;;;;;3.07;2.70;;;;;;;35.12;27.73;160434.63;4976074;28;20548;-80
2022/07/14 09:25:00;;;;;;;3.00;2.63;;;;;;;35.21;27.97;160459.66;4972357;28;20537;-80
2022/07/14 09:27:27;;;;;;;2.93;2.57;;;;;;;35.56;26.84;160549.22;4989862;28;20992;-80
2022/07/14 09:29:56;;;;;;;3.50;2.57;;;;;;;35.75;27.17;160600.56;4971087;28;20528;-80
2022/07/14 09:32:42;;;;;;;3.93;2.40;;;;;;;35.96;27.28;160655.88;4974681;28;20513;-80
2022/07/14 09:35:12;;;;;;;3.53;2.80;;;;;;;36.35;25.42;160756.03;4987451;28;20458;-81
2022/07/14 09:37:39;;;;;;;2.50;2.30;;;;;;;36.47;24.25;160788.94;4975730;28;20584;-80
2022/07/14 09:40:11;;;;;;;3.27;2.40;;;;;;;36.39;24.48;160766.56;4961132;28;20230;-81
2022/07/14 09:42:48;;;;;;;2.70;2.50;;;;;;;36.47;24.68;160787.63;4990418;28;20467;-80
2022/07/14 09:45:18;;;;;;;2.63;2.43;;;;;;;36.39;24.85;160767.88;4989533;28;20471;-80
2022/07/14 09:48:03;;;;;;;2.87;2.30;;;;;;;36.63;24.51;160829.84;4992735;28;20932;-81
2022/07/14 09:50:39;;;;;;;3.43;2.70;;;;;;;36.54;24.77;160806.09;4974101;28;20467;-80
2022/07/14 09:53:12;;;;;;;2.63;2.43;;;;;;;36.74;24.03;160858.84;4973279;28;20235;-80
2022/07/14 09:55:40;;;;;;;2.70;2.50;;;;;;;36.68;23.78;160843.00;4968782;28;20207;-80
2022/07/14 09:58:07;;;;;;;2.67;2.30;;;;;;;36.85;22.86;160887.81;4972751;28;20223;-80
2022/07/14 10:00:35;;;;;;;5.70;2.37;;;;;;;36.91;23.05;160903.59;4992296;28;20210;-81
2022/07/14 10:03:03;;;;;;;2.30;2.10;;;;;;;36.83;23.14;160882.53;4971788;28;20258;-80
2022/07/14 10:05:31;;;;;;;2.50;2.17;;;;;;;36.98;23.02;160922.13;4982996;28;20727;-81
2022/07/14 10:07:59;;;;;;;2.73;2.53;;;;;;;37.21;21.85;160982.75;4986863;28;20298;-81
2022/07/14 10:10:29;;;;;;;2.40;2.20;;;;;;;36.95;23.55;160914.22;4971931;28;20205;-80
2022/07/14 10:12:56;;;;;;;2.50;2.30;;;;;;;36.62;23.46;160827.19;4987311;28;22150;-80
2022/07/14 10:15:23;;;;;;;2.60;2.40;;;;;;;36.54;23.32;160806.09;4990701;28;20561;-80
2022/07/14 10:17:52;;;;;;;2.60;2.40;;;;;;;36.49;23.14;160792.94;4974246;28;20222;-80
2022/07/14 10:20:19;;;;;;;2.50;2.30;;;;;;;36.51;23.31;160798.25;4974266;28;20212;-80
2022/07/14 10:22:47;;;;;;;3.00;2.63;;;;;;;36.46;23.33;160785.03;4981653;28;20240;-81
2022/07/14 10:25:15;;;;;;;3.47;2.17;;;;;;;36.59;23.52;160819.31;4988352;28;20632;-80
2022/07/14 10:27:46;;;;;;;2.37;2.20;;;;;;;36.70;22.91;160848.25;4992547;28;20227;-80
2022/07/14 10:30:40;;;;;;;2.77;2.30;;;;;;;36.77;22.47;160866.75;4990693;28;20222;-81
2022/07/14 10:33:11;;;;;;;2.17;2.07;;;;;;;36.56;22.77;160811.41;4983910;28;20379;-80
2022/07/14 10:36:03;;;;;;;2.23;2.03;;;;;;;36.39;21.96;160767.88;4970197;28;20211;-80
2022/07/14 10:38:41;;;;;;;3.47;2.23;;;;;;;36.08;22.75;160684.91;4991997;28;20251;-80
2022/07/14 10:41:20;;;;;;;3.43;2.40;;;;;;;35.94;23.07;160650.63;4976850;28;20322;-80
2022/07/14 10:44:06;;;;;;;2.60;2.40;;;;;;;36.21;22.65;160720.47;4975992;28;20200;-80
2022/07/14 10:46:37;;;;;;;2.80;2.60;;;;;;;36.28;22.58;160737.56;4978161;28;20673;-80
2022/07/14 10:49:07;;;;;;;2.67;2.47;;;;;;;36.31;22.86;160745.47;4977857;28;20780;-80
2022/07/14 10:51:35;;;;;;;2.63;2.43;;;;;;;36.32;22.98;160748.13;4976083;28;20548;-77
2022/07/14 10:54:08;;;;;;;4.00;2.43;;;;;;;36.38;22.65;160763.94;4975609;28;20467;-77
2022/07/14 10:56:35;;;;;;;3.30;2.50;;;;;;;36.35;22.53;160756.03;4985184;28;20547;-77
2022/07/14 10:59:33;;;;;;;2.80;2.43;;;;;;;36.25;23.26;160729.72;4976457;28;20480;-77
2022/07/14 11:02:31;;;;;;;2.47;2.10;;;;;;;36.32;22.63;160748.13;4995068;28;20535;-80
2022/07/14 11:05:23;;;;;;;2.80;2.60;;;;;;;35.98;22.27;160659.84;4993657;28;21113;-79
2022/07/14 11:07:52;;;;;;;3.73;2.53;;;;;;;35.82;23.58;160617.69;4969588;28;20483;-86
2022/07/14 11:10:57;;;;;;;2.90;2.60;;;;;;;35.86;22.84;160629.53;4996526;28;20548;-86
2022/07/14 11:13:24;;;;;;;3.03;2.83;;;;;;;35.78;22.94;160607.13;4902374;29;20464;-86
2022/07/14 11:15:53;;;;;;;3.27;2.80;;;;;;;35.79;23.06;160609.78;4981636;28;20495;-84
2022/07/14 11:18:33;;;;;;;4.70;2.70;;;;;;;35.78;23.18;160608.47;4988530;28;20466;-84
2022/07/14 11:21:05;;;;;;;2.60;2.23;;;;;;;35.75;23.21;160600.56;4985232;28;20456;-83
2022/07/14 11:23:34;;;;;;;2.90;2.70;;;;;;;35.61;23.00;160563.66;4977514;28;20452;-84
2022/07/14 11:26:04;;;;;;;3.37;3.00;;;;;;;35.45;23.04;160521.53;4962790;28;20452;-83
2022/07/14 11:28:50;;;;;;;8.10;2.80;;;;;;;35.66;23.65;160575.56;4979178;28;20543;-83
2022/07/14 11:31:18;;;;;;;2.40;2.27;;;;;;;35.69;22.99;160584.75;4989667;28;20881;-83
2022/07/14 11:36:33;;;;;;;4.53;2.80;;;;;;;35.51;23.95;160537.28;4978752;28;20452;-85
2022/07/14 11:39:22;;;;;;;3.00;2.80;;;;;;;35.17;23.65;160449.09;4996819;28;21214;-85
2022/07/14 11:41:51;;;;;;;2.43;2.23;;;;;;;35.21;23.31;160458.34;4994599;28;20826;-85
2022/07/14 11:44:51;;;;;;;3.37;2.97;;;;;;;35.41;23.72;160512.31;4995461;28;20441;-86
2022/07/14 11:47:23;;;;;;;5.60;3.23;;;;;;;35.30;24.01;160483.31;4987580;28;20448;-85
2022/07/14 11:49:58;;;;;;;3.60;2.67;;;;;;;35.17;23.35;160447.78;5005080;28;20499;-86
2022/07/14 11:52:31;;;;;;;4.57;3.40;;;;;;;35.03;24.16;160410.91;5006746;28;20452;-85